Nearby METAR Reports

 

KTEB - Teterboro, New Jersey, USA
Distance from station: ENE 2mi, 4km
Updated: 11/13/2018 3:51pm
Overcast
Overcast
 Wind from WNW
Wind: WNW 13 mph , 20 km/h
Temperature: 46°F , 8°C
Wind Chill: 40°F , 4°C
Dew Point: 37°F , 3°C
Humidity: 71%
Barometer: 29.94 inHg , 1013.9 hPa
Clouds: Overcast
Visibility: 10 miles , 16 km
Cloud details: Overcast 9500 ft
2018/11/13 20:51 KTEB 132051Z 30011KT 10SM OVC095 08/03 A2994 RMK AO2 PRESRR SLP137 T00830028 53031
KNYC - Nyc/Central Park, New York, USA
Distance from station: SE 8mi, 13km
Updated: 11/13/2018 3:51pm
Overcast
Overcast
 
Temperature: 46°F , 8°C
Dew Point: 37°F , 3°C
Humidity: 71%
Barometer: 29.95 inHg , 1014.2 hPa
Clouds: Overcast
Visibility: 10 miles , 16 km
Cloud details: Overcast 10000 ft
2018/11/13 20:51 KNYC 132051Z AUTO 10SM OVC100 08/03 A2995 RMK AO2 SLP134 T00830028 53029 $
 
KCDW - Caldwell, New Jersey, USA
Distance from station: WNW 10mi, 17km
Updated: 11/13/2018 3:53pm
Overcast
Overcast
 Wind from WNW
Wind: WNW 10 mph , 17 km/h
Temperature: 45°F , 7°C
Wind Chill: 40°F , 4°C
Dew Point: 36°F , 2°C
Humidity: 71%
Barometer: 29.96 inHg , 1014.6 hPa
Clouds: Overcast
Visibility: 10 miles , 16 km
Cloud details: Overcast 9000 ft
2018/11/13 20:53 KCDW 132053Z 30009KT 10SM OVC090 07/02 A2996 RMK AO2 SLP150 T00720022 53031
KLGA - Nyc/La Guardia, New York, USA
Distance from station: ESE 12mi, 19km
Updated: 11/13/2018 3:51pm
Overcast
Overcast
 Wind from WNW
Wind: WNW 21 mph , 33 km/h
Temperature: 48°F , 9°C
Wind Chill: 41°F , 5°C
Dew Point: 37°F , 3°C
Humidity: 66%
Barometer: 29.93 inHg , 1013.5 hPa
Clouds: Overcast
Visibility: 10 miles , 16 km
Cloud details: Few Clouds 2000 ft
Partly cloudy 4000 ft
Overcast 10000 ft
2018/11/13 20:51 KLGA 132051Z 29018KT 10SM FEW020 SCT040 OVC100 09/03 A2993 RMK AO2 SLP134 T00940033 53036
 
KEWR - Newark, New Jersey, USA
Distance from station: SSW 12mi, 20km
Updated: 11/13/2018 3:51pm
Overcast
Overcast
 Wind from NW
Wind: NW 14 mph , 22 km/h, Gust: 20 mph , 31 km/h
Temperature: 46°F , 8°C
Wind Chill: 40°F , 4°C
Dew Point: 37°F , 3°C
Humidity: 71%
Barometer: 29.95 inHg , 1014.2 hPa
Clouds: Overcast
Visibility: 10 miles , 16 km
Cloud details: Few Clouds 1500 ft
Partly cloudy 2400 ft
Overcast 9500 ft
2018/11/13 20:51 KEWR 132051Z 31012G17KT 10SM FEW015 SCT024 OVC095 08/03 A2995 RMK AO2 PK WND 29026/2008 SLP140 T00830033 53025
KMMU - Morristown Muni, New Jersey, USA
Distance from station: WSW 18mi, 29km
Updated: 11/13/2018 3:45pm
Overcast
Overcast
 Wind from NNW
Wind: NNW 10 mph , 17 km/h, Gust: 18 mph , 30 km/h
Temperature: 46°F , 8°C
Wind Chill: 41°F , 5°C
Dew Point: 37°F , 3°C
Humidity: 71%
Barometer: 29.96 inHg , 1014.6 hPa
Clouds: Overcast
Visibility: 15 miles , 24 km
Cloud details: Partly cloudy 3200 ft
Overcast 9000 ft
2018/11/13 20:45 KMMU 132045Z 33009G16KT 15SM SCT032 OVC090 08/03 A2996
 
KJFK - Nyc/Jfk Arpt, New York, USA
Distance from station: SE 23mi, 36km
Updated: 11/13/2018 3:51pm
Overcast
Overcast
 Wind from WNW
Wind: WNW 18 mph , 30 km/h
Temperature: 48°F , 9°C
Wind Chill: 41°F , 5°C
Dew Point: 39°F , 4°C
Humidity: 71%
Barometer: 29.93 inHg , 1013.5 hPa
Clouds: Overcast
Visibility: 10 miles , 16 km
Cloud details: Few Clouds 2500 ft
Mostly cloudy 9500 ft
Overcast 16000 ft
2018/11/13 20:51 KJFK 132051Z 30016KT 10SM FEW025 BKN095 OVC160 09/04 A2993 RMK AO2 SLP134 T00940044 51032
KHPN - White Plains, New York, USA
Distance from station: NE 25mi, 40km
Updated: 11/13/2018 3:56pm
Mostly cloudy
Mostly cloudy
 Wind from NW
Wind: NW 10 mph , 17 km/h
Temperature: 43°F , 6°C
Wind Chill: 37°F , 3°C
Dew Point: 39°F , 4°C
Humidity: 87%
Barometer: 29.90 inHg , 1012.5 hPa
Clouds: Mostly cloudy
Visibility: 10 miles , 16 km
Cloud details: Partly cloudy 1200 ft
Mostly cloudy 2000 ft
Mostly cloudy 10000 ft
2018/11/13 20:56 KHPN 132056Z 31009KT 10SM SCT012 BKN020 BKN100 06/04 A2990 RMK AO2 SLP130 T00610039 53030
 
KSMQ - Somerville, New Jersey, USA
Distance from station: WSW 34mi, 55km
Updated: 11/13/2018 3:53pm
Overcast
Overcast
 Wind from NW
Wind: NW 10 mph , 17 km/h, Gust: 17 mph , 28 km/h
Temperature: 46°F , 8°C
Wind Chill: 41°F , 5°C
Dew Point: 36°F , 2°C
Humidity: 66%
Barometer: 29.95 inHg , 1014.2 hPa
Clouds: Overcast
Visibility: 10 miles , 16 km
Cloud details: Few Clouds 3300 ft
Overcast 9000 ft
2018/11/13 20:53 KSMQ 132053Z AUTO 31009G15KT 10SM FEW033 OVC090 08/02 A2995 RMK AO2 SLP142 T00780022 53024
K12N - Andover, New Jersey, USA
Distance from station: WNW 36mi, 57km
Updated: 11/13/2018 3:54pm

 Wind from varies
Wind: varies 6 mph , 9 km/h
Temperature: 43°F , 6°C
Wind Chill: 39°F , 4°C
Dew Point: 34°F , 1°C
Humidity: 71%
Barometer: 29.96 inHg , 1014.6 hPa
2018/11/13 20:54 K12N 132054Z AUTO VRB05KT 06/01 A2996 RMK AO1 SLP152 T00560006 53022
 
KFRG - Farmingdale, New York, USA
Distance from station: ESE 36mi, 58km
Updated: 11/13/2018 3:53pm
Overcast
Overcast
 Wind from NW
Wind: NW 10 mph , 17 km/h
Temperature: 46°F , 8°C
Wind Chill: 41°F , 5°C
Dew Point: 41°F , 5°C
Humidity: 82%
Barometer: 29.91 inHg , 1012.9 hPa
Clouds: Overcast
Visibility: 10 miles , 16 km
Cloud details: Few Clouds 1600 ft
Overcast 10000 ft
2018/11/13 20:53 KFRG 132053Z 31009KT 10SM FEW016 OVC100 08/05 A2991 RMK AO2 PRESRR SLP130 T00780050 53027
KFWN - Sussex, New Jersey, USA
Distance from station: NW 37mi, 60km
Updated: 11/13/2018 3:53pm
Overcast
Overcast
 Wind from varies
Wind: varies 6 mph , 9 km/h
Temperature: 43°F , 6°C
Wind Chill: 39°F , 4°C
Dew Point: 36°F , 2°C
Humidity: 76%
Barometer: 29.96 inHg , 1014.6 hPa
Clouds: Overcast
Visibility: 10 miles , 16 km
Cloud details: Overcast 2500 ft
2018/11/13 20:53 KFWN 132053Z AUTO VRB05KT 10SM OVC025 06/02 A2996 RMK AO2 SLP146 T00560017 53023
 
KSWF - Newburgh/Stewart, New York, USA
Distance from station: 0 45mi, 72km
Updated: 11/13/2018 3:45pm
Overcast
Overcast
 Wind from NNW
Wind: NNW 5 mph , 7 km/h
Temperature: 41°F , 5°C
Wind Chill: 38°F , 3°C
Dew Point: 41°F , 5°C
Humidity: 100%
Barometer: 29.94 inHg , 1013.9 hPa
Clouds: Overcast
Visibility: 10 miles , 16 km
Cloud details: Few Clouds 700 ft
Mostly cloudy 1300 ft
Overcast 4000 ft
2018/11/13 20:45 KSWF 132045Z 33004KT 10SM FEW007 BKN013 OVC040 05/05 A2994
KMGJ - Montgomery, New York, USA
Distance from station: NNW 47mi, 75km
Updated: 11/13/2018 3:54pm
Overcast
Overcast
 Wind from varies
Wind: varies 5 mph , 7 km/h
Temperature: 43°F , 6°C
Wind Chill: 40°F , 4°C
Dew Point: 34°F , 1°C
Humidity: 71%
Barometer: 29.92 inHg , 1013.2 hPa
Clouds: Overcast
Visibility: 10 miles , 16 km
Cloud details: Partly cloudy 3000 ft
Mostly cloudy 10000 ft
Overcast 12000 ft
2018/11/13 20:54 KMGJ 132054Z AUTO VRB04KT 10SM SCT030 BKN100 OVC120 06/01 A2992 RMK AO2 SLP134 60000 T00610011 53019
 
KBLM - Belmar/Farmdale, New Jersey, USA
Distance from station: S 47mi, 76km
Updated: 11/13/2018 3:56pm
Overcast
Overcast
 Wind from WNW
Wind: WNW 15 mph , 24 km/h
Temperature: 48°F , 9°C
Wind Chill: 42°F , 6°C
Dew Point: 43°F , 6°C
Humidity: 82%
Barometer: 29.95 inHg , 1014.2 hPa
Clouds: Overcast
Visibility: 10 miles , 16 km
Cloud details: Mostly cloudy 1900 ft
Overcast 10000 ft
2018/11/13 20:56 KBLM 132056Z AUTO 29013KT 10SM BKN019 OVC100 09/06 A2995 RMK AO2 SLP146 T00890056 53024
KDXR - Danbury, Connecticut, USA
Distance from station: NE 47mi, 76km
Updated: 11/13/2018 3:53pm
Overcast
Overcast
 Wind from NW
Wind: NW 10 mph , 17 km/h, Gust: 17 mph , 28 km/h
Temperature: 41°F , 5°C
Wind Chill: 35°F , 2°C
Dew Point: 36°F , 2°C
Humidity: 81%
Barometer: 29.91 inHg , 1012.9 hPa
Clouds: Overcast
Visibility: 10 miles , 16 km
Cloud details: Few Clouds 3000 ft
Overcast 10000 ft
2018/11/13 20:53 KDXR 132053Z 32009G15KT 10SM FEW030 OVC100 05/02 A2991 RMK AO2 SLP131 T00500017 53029
 
KISP - Islip, New York, USA
Distance from station: E 52mi, 83km
Updated: 11/13/2018 3:56pm
Overcast
Overcast
 Wind from WNW
Wind: WNW 16 mph , 26 km/h, Gust: 23 mph , 37 km/h
Temperature: 46°F , 8°C
Wind Chill: 39°F , 4°C
Dew Point: 41°F , 5°C
Humidity: 82%
Barometer: 29.89 inHg , 1012.2 hPa
Clouds: Overcast
Visibility: 10 miles , 16 km
Cloud details: Mostly cloudy 1700 ft
Overcast 11000 ft
2018/11/13 20:56 KISP 132056Z 30014G20KT 10SM BKN017 OVC110 08/05 A2989 RMK AO2 SLP120 60000 T00780050 53038
KBDR - Bridgeport, Connecticut, USA
Distance from station: ENE 54mi, 87km
Updated: 11/13/2018 3:52pm
Overcast
Overcast
 Wind from WNW
Wind: WNW 14 mph , 22 km/h
Temperature: 46°F , 8°C
Wind Chill: 40°F , 4°C
Dew Point: 37°F , 3°C
Humidity: 71%
Barometer: 29.89 inHg , 1012.2 hPa
Clouds: Overcast
Visibility: 10 miles , 16 km
Cloud details: Overcast 11000 ft
2018/11/13 20:52 KBDR 132052Z 30012KT 10SM OVC110 08/03 A2989 RMK AO2 SLP121 T00780028 53044
 
KTTN - Trenton, New Jersey, USA
Distance from station: SW 55mi, 88km
Updated: 11/13/2018 3:53pm
Overcast
Overcast
 Wind from WNW
Wind: WNW 12 mph , 19 km/h
Temperature: 46°F , 8°C
Wind Chill: 40°F , 4°C
Dew Point: 36°F , 2°C
Humidity: 66%
Barometer: 29.96 inHg , 1014.6 hPa
Clouds: Overcast
Visibility: 10 miles , 16 km
Cloud details: Overcast 9000 ft
2018/11/13 20:53 KTTN 132053Z 30010KT 10SM OVC090 08/02 A2996 RMK AO2 SLP142 T00780022 53022
KPOU - Poughkeepsie, New York, USA
Distance from station: N 55mi, 89km
Updated: 11/13/2018 3:53pm
Overcast
Overcast
 Wind from NW
Wind: NW 6 mph , 9 km/h
Temperature: 41°F , 5°C
Wind Chill: 37°F , 3°C
Dew Point: 36°F , 2°C
Humidity: 81%
Barometer: 29.93 inHg , 1013.5 hPa
Clouds: Overcast
Visibility: 10 miles , 16 km
Cloud details: Mostly cloudy 1800 ft
Overcast 3000 ft
2018/11/13 20:53 KPOU 132053Z 31005KT 10SM BKN018 OVC030 05/02 A2993 RMK AO2 SLP133 T00500022 53017
 
KNEL - Lakehurst Nas, New Jersey, USA
Distance from station: SSW 59mi, 95km
Updated: 11/13/2018 4:00pm
Overcast
Overcast
 Wind from WNW
Wind: WNW 12 mph , 19 km/h, Gust: 18 mph , 30 km/h
Temperature: 48°F , 9°C
Wind Chill: 43°F , 6°C
Dew Point: 43°F , 6°C
Humidity: 82%
Barometer: 29.94 inHg , 1013.9 hPa
Clouds: Overcast
Visibility: 10 miles , 16 km
Cloud details: Overcast 9000 ft
2018/11/13 21:00 KNEL 132100Z 30010G16KT 10SM OVC090 09/06 A2994 RMK AO2 SLP139 6//// T00940056 50006 PNO
KWRI - Wrightst/Mcguire, New Jersey, USA
Distance from station: SSW 63mi, 102km
Updated: 11/13/2018 4:04pm
Overcast
Overcast
 Wind from NW
Wind: NW 15 mph , 24 km/h, Gust: 21 mph , 33 km/h
Temperature: 46°F , 8°C
Wind Chill: 40°F , 4°C
Dew Point: 39°F , 4°C
Humidity: 76%
Barometer: 29.94 inHg , 1013.9 hPa
Clouds: Overcast
Visibility: 10 miles , 16 km
Cloud details: Overcast 9000 ft
2018/11/13 21:04 KWRI 132104Z AUTO 31013G18KT 10SM OVC090 08/04 A2994 RMK AO2 RAE04 SLP139 RVRNO VISNO RWY06 $
 
KHWV - Shirley, New York, USA
Distance from station: E 64mi, 103km
Updated: 11/13/2018 3:56pm
Partly cloudy
Partly cloudy
 Wind from NW
Wind: NW 14 mph , 22 km/h
Temperature: 46°F , 8°C
Wind Chill: 40°F , 4°C
Dew Point: 41°F , 5°C
Humidity: 82%
Barometer: 29.86 inHg , 1011.2 hPa
Clouds: Partly cloudy
Visibility: 10 miles , 16 km
Cloud details: Partly cloudy 12000 ft
2018/11/13 20:56 KHWV 132056Z AUTO 31012KT 10SM SCT120 08/05 A2986 RMK AO2 SLP112 T00830050 51032
KMJX - Toms River, New Jersey, USA
Distance from station: S 64mi, 104km
Updated: 11/13/2018 3:56pm
Overcast
Overcast
 Wind from WNW
Wind: WNW 17 mph , 28 km/h, Gust: 23 mph , 37 km/h
Temperature: 48°F , 9°C
Wind Chill: 42°F , 6°C
Dew Point: 43°F , 6°C
Humidity: 82%
Barometer: 29.96 inHg , 1014.6 hPa
Clouds: Overcast
Visibility: 10 miles , 16 km
Cloud details: Overcast 8500 ft
2018/11/13 20:56 KMJX 132056Z AUTO 30015G20KT 10SM OVC085 09/06 A2996 RMK AO2 SLP151 T00890056 53024
 
KDYL - Doylestown, Pennsylvania, USA
Distance from station: SW 65mi, 104km
Updated: 11/13/2018 3:54pm
Overcast
Overcast
 Wind from WNW
Wind: WNW 10 mph , 17 km/h, Gust: 17 mph , 28 km/h
Temperature: 45°F , 7°C
Wind Chill: 40°F , 4°C
Dew Point: 36°F , 2°C
Humidity: 71%
Barometer: 29.97 inHg , 1014.9 hPa
Clouds: Overcast
Visibility: 10 miles , 16 km
Cloud details: Partly cloudy 2400 ft
Overcast 9000 ft
2018/11/13 20:54 KDYL 132054Z AUTO 30009G15KT 10SM SCT024 OVC090 07/02 A2997 RMK AO2 SLP153 T00670022 53022 $
KOXC - Oxford/Waterbury, Connecticut, USA
Distance from station: NE 65mi, 105km
Updated: 11/13/2018 3:51pm
Overcast
Overcast
 Wind from NNW
Wind: NNW 14 mph , 22 km/h, Gust: 18 mph , 30 km/h
Temperature: 41°F , 5°C
Wind Chill: 33°F , 1°C
Dew Point: 36°F , 2°C
Humidity: 81%
Barometer: 29.87 inHg , 1011.5 hPa
Clouds: Overcast
Visibility: 10 miles , 16 km
Cloud details: Few Clouds 1500 ft
Overcast 10000 ft
2018/11/13 20:51 KOXC 132051Z 33012G16KT 10SM FEW015 OVC100 05/02 A2987 RMK AO2 PK WND 34026/2029 SLP133 T00500017 53031
 
KMSV - Monticello, New York, USA
Distance from station: NNW 69mi, 111km
Updated: 11/13/2018 3:56pm
Overcast
Overcast
 Wind from WNW
Wind: WNW 12 mph , 19 km/h
Temperature: 36°F , 2°C
Wind Chill: 28°F , -2°C
Dew Point: 32°F , 0°C
Humidity: 87%
Barometer: 29.94 inHg , 1013.9 hPa
Clouds: Overcast
Visibility: 10 miles , 16 km
Cloud details: Overcast 1700 ft
2018/11/13 20:56 KMSV 132056Z AUTO 30010KT 10SM OVC017 02/00 A2994 RMK AO2 SLP153 60000 T00220000 53018 FZRANO
KHVN - New Haven/Tweed, Connecticut, USA
Distance from station: ENE 70mi, 112km
Updated: 11/13/2018 3:53pm
Mostly cloudy
Mostly cloudy
 Wind from WNW
Wind: WNW 10 mph , 17 km/h
Temperature: 48°F , 9°C
Wind Chill: 44°F , 7°C
Dew Point: 39°F , 4°C
Humidity: 71%
Barometer: 29.87 inHg , 1011.5 hPa
Clouds: Mostly cloudy
Visibility: 10 miles , 16 km
Cloud details: Partly cloudy 1500 ft
Mostly cloudy 11000 ft
2018/11/13 20:53 KHVN 132053Z 30009KT 10SM SCT015 BKN110 09/04 A2987 RMK AO2 SLP114 T00890044 53031
 
KMPO - Mt. Pocono, Pennsylvania, USA
Distance from station: WNW 70mi, 113km
Updated: 11/13/2018 3:53pm
Overcast
Overcast
 Wind from WNW
Wind: WNW 18 mph , 30 km/h, Gust: 25 mph , 41 km/h
Temperature: 34°F , 1°C
Wind Chill: 23°F , -5°C
Dew Point: 32°F , 0°C
Humidity: 93%
Barometer: 29.92 inHg , 1013.2 hPa
Clouds: Overcast
Visibility: 10 miles , 16 km
Cloud details: Mostly cloudy 1300 ft
Overcast 10000 ft
2018/11/13 20:53 KMPO 132053Z AUTO 30016G22KT 10SM BKN013 OVC100 01/00 A2992 RMK AO2 PK WND 30030/2006 SLP148 T00110000 53019
KPNE - Philadelphia/Ne, Pennsylvania, USA
Distance from station: SW 72mi, 116km
Updated: 11/13/2018 3:54pm
Overcast
Overcast
 Wind from WNW
Wind: WNW 10 mph , 17 km/h
Temperature: 48°F , 9°C
Wind Chill: 44°F , 7°C
Dew Point: 39°F , 4°C
Humidity: 71%
Barometer: 29.99 inHg , 1015.6 hPa
Clouds: Overcast
Visibility: 10 miles , 16 km
Cloud details: Partly cloudy 2300 ft
Mostly cloudy 2900 ft
Overcast 9000 ft
2018/11/13 20:54 KPNE 132054Z 30009KT 10SM SCT023 BKN029 OVC090 09/04 A2999 RMK AO2 SLP156 T00890039 51021
 
KABE - Allentown, Pennsylvania, USA
Distance from station: W 73mi, 117km
Updated: 11/13/2018 3:51pm
Mostly cloudy
Mostly cloudy
 Wind from NW
Wind: NW 13 mph , 20 km/h
Temperature: 45°F , 7°C
Wind Chill: 39°F , 4°C
Dew Point: 34°F , 1°C
Humidity: 66%
Barometer: 30.00 inHg , 1015.9 hPa
Clouds: Mostly cloudy
Visibility: 10 miles , 16 km
Cloud details: Mostly cloudy 3000 ft
Mostly cloudy 8000 ft
Mostly cloudy 9000 ft
2018/11/13 20:51 KABE 132051Z 32011KT 10SM BKN030 BKN080 BKN090 07/01 A3000 RMK AO2 RAB25E35 SLP160 P0000 60000 T00720011 53015
KUKT - Quakertown Arp, Pennsylvania, USA
Distance from station: WSW 74mi, 119km
Updated: 11/13/2018 4:15pm
Overcast
Overcast
 Wind from WNW
Wind: WNW 7 mph , 11 km/h
Temperature: 43°F , 6°C
Wind Chill: 39°F , 4°C
Dew Point: 37°F , 3°C
Humidity: 81%
Barometer: 30.00 inHg , 1015.9 hPa
Clouds: Overcast
Visibility: 10 miles , 16 km
Cloud details: Few Clouds 2400 ft
Mostly cloudy 2800 ft
Overcast 9500 ft
2018/11/13 21:15 KUKT 132115Z AUTO 30006KT 10SM FEW024 BKN028 OVC095 06/03 A3000 RMK A01
 
KVAY - Mount Holly, New Jersey, USA
Distance from station: SSW 75mi, 120km
Updated: 11/13/2018 3:54pm
Overcast
Overcast
 Wind from WNW
Wind: WNW 10 mph , 17 km/h
Temperature: 48°F , 9°C
Wind Chill: 44°F , 7°C
Dew Point: 39°F , 4°C
Humidity: 71%
Barometer: 29.98 inHg , 1015.2 hPa
Clouds: Overcast
Visibility: 10 miles , 16 km
Cloud details: Overcast 9000 ft
2018/11/13 20:54 KVAY 132054Z AUTO 30009KT 10SM OVC090 09/04 A2998 RMK AO2 SLP152 T00890044 53022
KXLL - Allentown Queen, Pennsylvania, USA
Distance from station: WSW 76mi, 122km
Updated: 11/13/2018 3:55pm
Partly cloudy
Partly cloudy
 Wind from WNW
Wind: WNW 9 mph , 15 km/h, Gust: 16 mph , 26 km/h
Temperature: 45°F , 7°C
Wind Chill: 40°F , 4°C
Dew Point: 36°F , 2°C
Humidity: 71%
Barometer: 30.01 inHg , 1016.3 hPa
Clouds: Partly cloudy
Visibility: 10 miles , 16 km
Cloud details: Partly cloudy 2900 ft
Partly cloudy 12000 ft
2018/11/13 20:55 KXLL 132055Z AUTO 29008G14KT 10SM SCT029 SCT120 07/02 A3001 RMK AO2
 
KFOK - Westhampton Beac, New York, USA
Distance from station: E 77mi, 124km
Updated: 11/13/2018 4:05pm
Partly cloudy
Partly cloudy
 Wind from NW
Wind: NW 15 mph , 24 km/h
Temperature: 46°F , 8°C
Wind Chill: 40°F , 4°C
Dew Point: 41°F , 5°C
Humidity: 82%
Barometer: 29.86 inHg , 1011.2 hPa
Clouds: Partly cloudy
Visibility: 10 miles , 16 km
Cloud details: Partly cloudy 1500 ft
Partly cloudy 12000 ft
2018/11/13 21:05 KFOK 132105Z 31013KT 10SM SCT015 SCT120 08/05 A2986 RMK AO2 T00830050
KLOM - Philly Wings F, Pennsylvania, USA
Distance from station: SW 79mi, 128km
Updated: 11/13/2018 3:55pm
Overcast
Overcast
 Wind from WNW
Wind: WNW 6 mph , 9 km/h, Gust: 16 mph , 26 km/h
Temperature: 43°F , 6°C
Wind Chill: 39°F , 4°C
Dew Point: 37°F , 3°C
Humidity: 81%
Barometer: 30.00 inHg , 1015.9 hPa
Clouds: Overcast
Visibility: 10 miles , 16 km
Cloud details: Overcast 8500 ft
2018/11/13 20:55 KLOM 132055Z AUTO 29005G14KT 10SM OVC085 06/03 A3000 RMK AO1
 
KMMK - Meriden, Connecticut, USA
Distance from station: NE 80mi, 128km
Updated: 11/13/2018 3:53pm
Overcast
Overcast
 Wind from NW
Wind: NW 16 mph , 26 km/h
Temperature: 45°F , 7°C
Wind Chill: 38°F , 3°C
Dew Point: 36°F , 2°C
Humidity: 71%
Barometer: 29.86 inHg , 1011.2 hPa
Clouds: Overcast
Visibility: 10 miles , 16 km
Cloud details: Overcast 11000 ft
2018/11/13 20:53 KMMK 132053Z AUTO 32014KT 10SM OVC110 07/02 A2986 RMK AO2 PRESRR SLP113 60001 T00720022 53023
KPTW - Pottstown, Pennsylvania, USA
Distance from station: WSW 88mi, 141km
Updated: 11/13/2018 3:54pm
Mostly cloudy
Mostly cloudy
 Wind from NW
Wind: NW 13 mph , 20 km/h, Gust: 16 mph , 26 km/h
Temperature: 43°F , 6°C
Wind Chill: 36°F , 2°C
Dew Point: 36°F , 2°C
Humidity: 76%
Barometer: 30.02 inHg , 1016.6 hPa
Clouds: Mostly cloudy
Visibility: 10 miles , 16 km
Cloud details: Few Clouds 2700 ft
Mostly cloudy 10000 ft
2018/11/13 20:54 KPTW 132054Z AUTO 31011G14KT 10SM FEW027 BKN100 06/02 A3002 RMK AO2 SLP163 T00610022 51016 $
 
KSNC - Chester, Connecticut, USA
Distance from station: ENE 90mi, 146km
Updated: 11/13/2018 4:15pm
Mostly cloudy
Mostly cloudy
 Wind from NW
Wind: NW 9 mph , 15 km/h, Gust: 22 mph , 35 km/h
Temperature: 46°F , 8°C
Wind Chill: 41°F , 5°C
Dew Point: 41°F , 5°C
Humidity: 82%
Barometer: 29.84 inHg , 1010.5 hPa
Clouds: Mostly cloudy
Visibility: 10 miles , 16 km
Cloud details: Few Clouds 1100 ft
Few Clouds 1600 ft
Mostly cloudy 10000 ft
2018/11/13 21:15 KSNC 132115Z AUTO 31008G19KT 10SM FEW011 FEW016 BKN100 08/05 A2984 RMK AO2
KPHL - Philadelphia, Pennsylvania, USA
Distance from station: SW 91mi, 146km
Updated: 11/13/2018 3:54pm
Overcast
Overcast
 Wind from WNW
Wind: WNW 16 mph , 26 km/h, Gust: 24 mph , 39 km/h
Temperature: 46°F , 8°C
Wind Chill: 39°F , 4°C
Dew Point: 37°F , 3°C
Humidity: 71%
Barometer: 30.00 inHg , 1015.9 hPa
Clouds: Overcast
Visibility: 10 miles , 16 km
Cloud details: Partly cloudy 2500 ft
Overcast 9000 ft
2018/11/13 20:54 KPHL 132054Z 29014G21KT 10SM SCT025 OVC090 08/03 A3000 RMK AO2 RAB30E39 SLP160 P0000 60000 T00830028 52025
 
KAVP - Avoca/Wilkes B., Pennsylvania, USA
Distance from station: WNW 91mi, 147km
Updated: 11/13/2018 3:54pm
Overcast
Overcast
 Wind from NW
Wind: NW 10 mph , 17 km/h
Temperature: 37°F , 3°C
Wind Chill: 30°F , -1°C
Dew Point: 34°F , 1°C
Humidity: 87%
Barometer: 30.01 inHg , 1016.3 hPa
Clouds: Overcast
Visibility: 9 miles , 14 km
Cloud details: Mostly cloudy 2900 ft
Overcast 10000 ft
2018/11/13 20:54 KAVP 132054Z 32009KT 9SM BKN029 OVC100 03/01 A3001 RMK AO2 SLP167 T00330006 51021
KHFD - Hartford/Brainar, Connecticut, USA
Distance from station: NE 96mi, 155km
Updated: 11/13/2018 3:54pm
Overcast
Overcast
 Wind from NW
Wind: NW 13 mph , 20 km/h
Temperature: 45°F , 7°C
Wind Chill: 39°F , 4°C
Dew Point: 41°F , 5°C
Humidity: 87%
Barometer: 29.85 inHg , 1010.8 hPa
Clouds: Overcast
Visibility: 10 miles , 16 km
Cloud details: Partly cloudy 600 ft
Mostly cloudy 1000 ft
Overcast 12000 ft
2018/11/13 20:54 KHFD 132054Z COR 31011KT 10SM SCT006 BKN010 OVC120 07/05 A2985
 
KHTO - East Hampton, New York, USA
Distance from station: E 96mi, 155km
Updated: 11/13/2018 3:55pm
Mostly cloudy
Mostly cloudy
 Wind from NW
Wind: NW 10 mph , 17 km/h, Gust: 16 mph , 26 km/h
Temperature: 48°F , 9°C
Wind Chill: 44°F , 7°C
Dew Point: 45°F , 7°C
Humidity: 87%
Barometer: 29.81 inHg , 1009.5 hPa
Clouds: Mostly cloudy
Visibility: 10 miles , 16 km
Cloud details: Mostly cloudy 1400 ft
Mostly cloudy 2600 ft
2018/11/13 20:55 KHTO 132055Z AUTO 31009G14KT 10SM BKN014 BKN026 09/07 A2981 RMK AO2 T00850067
KACY - Atlantic City, New Jersey, USA
Distance from station: SSW 99mi, 160km
Updated: 11/13/2018 3:54pm
Overcast
Overcast
 Wind from WNW
Wind: WNW 14 mph , 22 km/h, Gust: 25 mph , 41 km/h
Temperature: 52°F , 11°C
Dew Point: 46°F , 8°C
Humidity: 82%
Barometer: 29.98 inHg , 1015.2 hPa
Clouds: Overcast
Visibility: 10 miles , 16 km
Cloud details: Few Clouds 2000 ft
Overcast 8500 ft
2018/11/13 20:54 KACY 132054Z 30012G22KT 10SM FEW020 OVC085 11/08 A2998 RMK AO2 SLP150 T01110078 53026